Terminal Aerodrome Forecast
Issued by NWS

Home | Current Version | Previous Version | Text Only | Print | Product List | Glossary On
Versions: 1 2 3 4 5 6 7 8 9 10 11 12 13 14 15 16 17 18 19 20 21 22
000
FTUS46 KMTR 162000 AAA
TAFSNS
TAF AMD
KSNS 162010Z 1620/1718 28012KT P6SM SKC
     FM170400 27008KT P6SM SCT015
     FM170700 27006KT P6SM BKN015
     FM171000 VRB03KT P6SM OVC007=

USA.gov is the U.S. government's official web portal to all federal, state and local government web resources and services.